sensor_id;sensor_type;location;lat;lon;timestamp;P1;durP1;ratioP1;P2;durP2;ratioP2
73428;SDS011;61643;49.564;17.412;2023-04-06T00:02:00;8.20;;;4.45;;
73428;SDS011;61643;49.564;17.412;2023-04-06T00:04:26;9.35;;;4.38;;
73428;SDS011;61643;49.564;17.412;2023-04-06T00:06:53;8.85;;;4.75;;
73428;SDS011;61643;49.564;17.412;2023-04-06T00:09:19;10.80;;;5.22;;
73428;SDS011;61643;49.564;17.412;2023-04-06T00:11:45;8.25;;;4.55;;
73428;SDS011;61643;49.564;17.412;2023-04-06T00:14:11;10.02;;;4.38;;
73428;SDS011;61643;49.564;17.412;2023-04-06T00:16:37;10.73;;;4.65;;
73428;SDS011;61643;49.564;17.412;2023-04-06T00:19:03;8.52;;;4.30;;
73428;SDS011;61643;49.564;17.412;2023-04-06T00:21:29;9.50;;;4.25;;
73428;SDS011;61643;49.564;17.412;2023-04-06T00:23:56;10.18;;;4.38;;
73428;SDS011;61643;49.564;17.412;2023-04-06T00:26:22;8.40;;;4.65;;
73428;SDS011;61643;49.564;17.412;2023-04-06T00:28:49;10.73;;;4.35;;
73428;SDS011;61643;49.564;17.412;2023-04-06T00:31:17;10.85;;;5.13;;
73428;SDS011;61643;49.564;17.412;2023-04-06T00:33:43;10.93;;;4.45;;
73428;SDS011;61643;49.564;17.412;2023-04-06T00:36:09;9.43;;;5.10;;
73428;SDS011;61643;49.564;17.412;2023-04-06T00:38:35;6.13;;;4.00;;
73428;SDS011;61643;49.564;17.412;2023-04-06T00:41:02;11.20;;;4.50;;
73428;SDS011;61643;49.564;17.412;2023-04-06T00:43:29;8.85;;;4.28;;
73428;SDS011;61643;49.564;17.412;2023-04-06T00:45:56;9.52;;;4.00;;
73428;SDS011;61643;49.564;17.412;2023-04-06T00:48:23;6.50;;;3.33;;
73428;SDS011;61643;49.564;17.412;2023-04-06T00:50:49;5.05;;;3.25;;
73428;SDS011;61643;49.564;17.412;2023-04-06T00:53:15;6.65;;;3.63;;
73428;SDS011;61643;49.564;17.412;2023-04-06T00:55:41;7.18;;;3.53;;
73428;SDS011;61643;49.564;17.412;2023-04-06T00:58:07;6.55;;;3.22;;
73428;SDS011;61643;49.564;17.412;2023-04-06T01:00:33;7.10;;;3.88;;
73428;SDS011;61643;49.564;17.412;2023-04-06T01:03:00;6.50;;;3.50;;
73428;SDS011;61643;49.564;17.412;2023-04-06T01:05:26;8.57;;;3.65;;
73428;SDS011;61643;49.564;17.412;2023-04-06T01:07:52;6.95;;;3.63;;
73428;SDS011;61643;49.564;17.412;2023-04-06T01:10:25;5.95;;;3.60;;
73428;SDS011;61643;49.564;17.412;2023-04-06T01:12:52;6.13;;;3.63;;
73428;SDS011;61643;49.564;17.412;2023-04-06T01:15:18;10.95;;;4.10;;
73428;SDS011;61643;49.564;17.412;2023-04-06T01:17:46;8.10;;;3.58;;
73428;SDS011;61643;49.564;17.412;2023-04-06T01:20:12;6.78;;;4.15;;
73428;SDS011;61643;49.564;17.412;2023-04-06T01:22:38;7.70;;;4.30;;
73428;SDS011;61643;49.564;17.412;2023-04-06T01:25:04;7.18;;;3.83;;
73428;SDS011;61643;49.564;17.412;2023-04-06T01:27:30;8.25;;;4.15;;
73428;SDS011;61643;49.564;17.412;2023-04-06T01:29:56;7.38;;;4.05;;
73428;SDS011;61643;49.564;17.412;2023-04-06T01:32:22;8.18;;;3.90;;
73428;SDS011;61643;49.564;17.412;2023-04-06T01:34:48;8.77;;;4.57;;
73428;SDS011;61643;49.564;17.412;2023-04-06T01:37:14;9.43;;;4.22;;
73428;SDS011;61643;49.564;17.412;2023-04-06T01:39:41;8.63;;;4.28;;
73428;SDS011;61643;49.564;17.412;2023-04-06T01:42:08;6.57;;;3.83;;
73428;SDS011;61643;49.564;17.412;2023-04-06T01:44:34;7.43;;;4.10;;
73428;SDS011;61643;49.564;17.412;2023-04-06T01:47:00;6.70;;;3.70;;
73428;SDS011;61643;49.564;17.412;2023-04-06T01:49:26;7.10;;;3.63;;
73428;SDS011;61643;49.564;17.412;2023-04-06T01:51:52;8.02;;;4.22;;
73428;SDS011;61643;49.564;17.412;2023-04-06T01:54:19;7.40;;;4.00;;
73428;SDS011;61643;49.564;17.412;2023-04-06T01:56:45;6.60;;;3.40;;
73428;SDS011;61643;49.564;17.412;2023-04-06T01:59:11;10.65;;;4.30;;
73428;SDS011;61643;49.564;17.412;2023-04-06T02:01:37;8.70;;;4.20;;
73428;SDS011;61643;49.564;17.412;2023-04-06T02:04:03;7.65;;;4.15;;
73428;SDS011;61643;49.564;17.412;2023-04-06T02:06:29;9.13;;;4.03;;
73428;SDS011;61643;49.564;17.412;2023-04-06T02:08:56;8.52;;;3.95;;
73428;SDS011;61643;49.564;17.412;2023-04-06T02:11:22;7.43;;;4.00;;
73428;SDS011;61643;49.564;17.412;2023-04-06T02:13:48;10.73;;;4.53;;
73428;SDS011;61643;49.564;17.412;2023-04-06T02:16:14;11.02;;;5.00;;
73428;SDS011;61643;49.564;17.412;2023-04-06T02:18:41;9.60;;;4.97;;
73428;SDS011;61643;49.564;17.412;2023-04-06T02:21:07;9.25;;;4.90;;
73428;SDS011;61643;49.564;17.412;2023-04-06T02:23:33;10.35;;;5.32;;
73428;SDS011;61643;49.564;17.412;2023-04-06T02:25:59;12.02;;;5.28;;
73428;SDS011;61643;49.564;17.412;2023-04-06T02:28:25;9.18;;;4.28;;
73428;SDS011;61643;49.564;17.412;2023-04-06T02:30:51;8.63;;;4.30;;
73428;SDS011;61643;49.564;17.412;2023-04-06T02:33:17;8.48;;;4.22;;
73428;SDS011;61643;49.564;17.412;2023-04-06T02:35:43;7.50;;;4.10;;
73428;SDS011;61643;49.564;17.412;2023-04-06T02:38:10;8.85;;;4.43;;
73428;SDS011;61643;49.564;17.412;2023-04-06T02:40:36;6.63;;;4.00;;
73428;SDS011;61643;49.564;17.412;2023-04-06T02:43:02;9.00;;;4.47;;
73428;SDS011;61643;49.564;17.412;2023-04-06T02:45:28;7.55;;;4.57;;
73428;SDS011;61643;49.564;17.412;2023-04-06T02:47:54;9.88;;;4.65;;
73428;SDS011;61643;49.564;17.412;2023-04-06T02:50:20;8.20;;;4.00;;
73428;SDS011;61643;49.564;17.412;2023-04-06T02:52:45;10.25;;;4.63;;
73428;SDS011;61643;49.564;17.412;2023-04-06T02:55:11;7.40;;;3.92;;
73428;SDS011;61643;49.564;17.412;2023-04-06T02:57:37;6.97;;;4.13;;
73428;SDS011;61643;49.564;17.412;2023-04-06T03:00:04;8.13;;;4.18;;
73428;SDS011;61643;49.564;17.412;2023-04-06T03:02:30;9.43;;;4.82;;
73428;SDS011;61643;49.564;17.412;2023-04-06T03:04:56;8.60;;;4.50;;
73428;SDS011;61643;49.564;17.412;2023-04-06T03:07:22;8.73;;;4.45;;
73428;SDS011;61643;49.564;17.412;2023-04-06T03:09:48;7.68;;;4.13;;
73428;SDS011;61643;49.564;17.412;2023-04-06T03:12:14;6.43;;;4.07;;
73428;SDS011;61643;49.564;17.412;2023-04-06T03:14:40;9.20;;;4.13;;
73428;SDS011;61643;49.564;17.412;2023-04-06T03:17:06;6.53;;;3.63;;
73428;SDS011;61643;49.564;17.412;2023-04-06T03:19:32;6.68;;;4.15;;
73428;SDS011;61643;49.564;17.412;2023-04-06T03:21:58;6.43;;;3.78;;
73428;SDS011;61643;49.564;17.412;2023-04-06T03:24:24;7.93;;;3.55;;
73428;SDS011;61643;49.564;17.412;2023-04-06T03:26:50;5.57;;;3.30;;
73428;SDS011;61643;49.564;17.412;2023-04-06T03:29:16;6.53;;;3.95;;
73428;SDS011;61643;49.564;17.412;2023-04-06T03:31:42;6.70;;;3.60;;
73428;SDS011;61643;49.564;17.412;2023-04-06T03:34:07;7.65;;;3.33;;
73428;SDS011;61643;49.564;17.412;2023-04-06T03:36:34;6.20;;;3.78;;
73428;SDS011;61643;49.564;17.412;2023-04-06T03:39:00;7.07;;;3.45;;
73428;SDS011;61643;49.564;17.412;2023-04-06T03:41:26;6.95;;;3.95;;
73428;SDS011;61643;49.564;17.412;2023-04-06T03:43:52;7.25;;;3.72;;
73428;SDS011;61643;49.564;17.412;2023-04-06T03:46:18;7.90;;;3.63;;
73428;SDS011;61643;49.564;17.412;2023-04-06T03:48:45;5.82;;;3.58;;
73428;SDS011;61643;49.564;17.412;2023-04-06T03:51:13;7.03;;;3.67;;
73428;SDS011;61643;49.564;17.412;2023-04-06T03:53:39;6.13;;;3.22;;
73428;SDS011;61643;49.564;17.412;2023-04-06T03:56:05;6.30;;;3.25;;
73428;SDS011;61643;49.564;17.412;2023-04-06T03:58:31;6.20;;;3.80;;
73428;SDS011;61643;49.564;17.412;2023-04-06T04:00:57;8.60;;;4.68;;
73428;SDS011;61643;49.564;17.412;2023-04-06T04:03:23;7.35;;;4.40;;
73428;SDS011;61643;49.564;17.412;2023-04-06T04:05:52;9.18;;;4.78;;
73428;SDS011;61643;49.564;17.412;2023-04-06T04:08:18;9.05;;;4.75;;
73428;SDS011;61643;49.564;17.412;2023-04-06T04:10:44;8.25;;;4.25;;
73428;SDS011;61643;49.564;17.412;2023-04-06T04:13:10;9.82;;;4.10;;
73428;SDS011;61643;49.564;17.412;2023-04-06T04:15:36;7.63;;;4.00;;
73428;SDS011;61643;49.564;17.412;2023-04-06T04:18:02;7.53;;;4.07;;
73428;SDS011;61643;49.564;17.412;2023-04-06T04:20:28;7.97;;;4.15;;
73428;SDS011;61643;49.564;17.412;2023-04-06T04:22:54;6.75;;;4.07;;
73428;SDS011;61643;49.564;17.412;2023-04-06T04:25:20;7.45;;;3.88;;
73428;SDS011;61643;49.564;17.412;2023-04-06T04:27:46;6.70;;;3.85;;
73428;SDS011;61643;49.564;17.412;2023-04-06T04:30:12;6.95;;;3.83;;
73428;SDS011;61643;49.564;17.412;2023-04-06T04:32:38;7.68;;;3.70;;
73428;SDS011;61643;49.564;17.412;2023-04-06T04:35:04;9.65;;;4.50;;
73428;SDS011;61643;49.564;17.412;2023-04-06T04:37:31;11.77;;;4.72;;
73428;SDS011;61643;49.564;17.412;2023-04-06T04:39:57;12.35;;;5.63;;
73428;SDS011;61643;49.564;17.412;2023-04-06T04:42:23;24.30;;;7.22;;
73428;SDS011;61643;49.564;17.412;2023-04-06T04:44:48;25.92;;;8.82;;
73428;SDS011;61643;49.564;17.412;2023-04-06T04:47:14;23.80;;;8.48;;
73428;SDS011;61643;49.564;17.412;2023-04-06T04:49:40;20.02;;;7.50;;
73428;SDS011;61643;49.564;17.412;2023-04-06T04:52:06;18.38;;;6.80;;
73428;SDS011;61643;49.564;17.412;2023-04-06T04:54:32;9.32;;;5.32;;
73428;SDS011;61643;49.564;17.412;2023-04-06T04:56:58;9.18;;;5.57;;
73428;SDS011;61643;49.564;17.412;2023-04-06T04:59:24;11.35;;;5.13;;
73428;SDS011;61643;49.564;17.412;2023-04-06T05:01:50;11.55;;;6.10;;
73428;SDS011;61643;49.564;17.412;2023-04-06T05:04:16;10.35;;;5.13;;
73428;SDS011;61643;49.564;17.412;2023-04-06T05:06:42;11.95;;;6.47;;
73428;SDS011;61643;49.564;17.412;2023-04-06T05:09:08;10.07;;;5.10;;
73428;SDS011;61643;49.564;17.412;2023-04-06T05:11:34;12.40;;;5.53;;
73428;SDS011;61643;49.564;17.412;2023-04-06T05:14:00;11.93;;;6.43;;
73428;SDS011;61643;49.564;17.412;2023-04-06T05:16:26;14.40;;;7.97;;
73428;SDS011;61643;49.564;17.412;2023-04-06T05:18:52;16.30;;;8.13;;
73428;SDS011;61643;49.564;17.412;2023-04-06T05:21:18;19.23;;;8.32;;
73428;SDS011;61643;49.564;17.412;2023-04-06T05:23:44;12.90;;;7.60;;
73428;SDS011;61643;49.564;17.412;2023-04-06T05:26:10;14.18;;;7.40;;
73428;SDS011;61643;49.564;17.412;2023-04-06T05:28:36;15.45;;;8.23;;
73428;SDS011;61643;49.564;17.412;2023-04-06T05:31:02;14.75;;;8.02;;
73428;SDS011;61643;49.564;17.412;2023-04-06T05:33:28;18.00;;;8.52;;
73428;SDS011;61643;49.564;17.412;2023-04-06T05:35:54;13.95;;;7.78;;
73428;SDS011;61643;49.564;17.412;2023-04-06T05:38:20;14.25;;;7.75;;
73428;SDS011;61643;49.564;17.412;2023-04-06T05:40:46;16.60;;;7.53;;
73428;SDS011;61643;49.564;17.412;2023-04-06T05:43:12;15.65;;;7.97;;
73428;SDS011;61643;49.564;17.412;2023-04-06T05:45:38;13.25;;;7.70;;
73428;SDS011;61643;49.564;17.412;2023-04-06T05:48:04;14.85;;;7.18;;
73428;SDS011;61643;49.564;17.412;2023-04-06T05:50:30;13.45;;;7.38;;
73428;SDS011;61643;49.564;17.412;2023-04-06T05:52:56;13.77;;;7.68;;
73428;SDS011;61643;49.564;17.412;2023-04-06T05:55:22;12.88;;;6.63;;
73428;SDS011;61643;49.564;17.412;2023-04-06T05:57:48;11.18;;;6.25;;
73428;SDS011;61643;49.564;17.412;2023-04-06T06:00:14;13.45;;;6.28;;
73428;SDS011;61643;49.564;17.412;2023-04-06T06:02:40;11.75;;;6.50;;
73428;SDS011;61643;49.564;17.412;2023-04-06T06:05:08;12.70;;;6.38;;
73428;SDS011;61643;49.564;17.412;2023-04-06T06:07:35;11.75;;;5.72;;
73428;SDS011;61643;49.564;17.412;2023-04-06T06:10:01;10.95;;;5.35;;
73428;SDS011;61643;49.564;17.412;2023-04-06T06:12:26;12.80;;;5.85;;
73428;SDS011;61643;49.564;17.412;2023-04-06T06:14:53;9.88;;;5.80;;
73428;SDS011;61643;49.564;17.412;2023-04-06T06:17:20;10.18;;;5.10;;
73428;SDS011;61643;49.564;17.412;2023-04-06T06:19:45;7.72;;;4.72;;
73428;SDS011;61643;49.564;17.412;2023-04-06T06:22:11;9.45;;;4.97;;
73428;SDS011;61643;49.564;17.412;2023-04-06T06:24:38;6.60;;;4.13;;
73428;SDS011;61643;49.564;17.412;2023-04-06T06:27:04;8.43;;;4.20;;
73428;SDS011;61643;49.564;17.412;2023-04-06T06:29:30;10.00;;;5.00;;
73428;SDS011;61643;49.564;17.412;2023-04-06T06:31:56;8.35;;;4.53;;
73428;SDS011;61643;49.564;17.412;2023-04-06T06:34:21;8.55;;;4.88;;
73428;SDS011;61643;49.564;17.412;2023-04-06T06:36:47;8.73;;;4.85;;
73428;SDS011;61643;49.564;17.412;2023-04-06T06:39:13;11.05;;;4.82;;
73428;SDS011;61643;49.564;17.412;2023-04-06T06:41:40;11.32;;;4.93;;
73428;SDS011;61643;49.564;17.412;2023-04-06T06:44:06;9.80;;;5.15;;
73428;SDS011;61643;49.564;17.412;2023-04-06T06:46:32;8.65;;;4.78;;
73428;SDS011;61643;49.564;17.412;2023-04-06T06:48:58;8.40;;;4.78;;
73428;SDS011;61643;49.564;17.412;2023-04-06T06:51:24;10.75;;;5.00;;
73428;SDS011;61643;49.564;17.412;2023-04-06T06:53:50;10.18;;;4.82;;
73428;SDS011;61643;49.564;17.412;2023-04-06T06:56:16;7.50;;;4.47;;
73428;SDS011;61643;49.564;17.412;2023-04-06T06:58:42;11.68;;;4.88;;
73428;SDS011;61643;49.564;17.412;2023-04-06T07:01:08;5.95;;;4.07;;
73428;SDS011;61643;49.564;17.412;2023-04-06T07:03:34;8.85;;;4.93;;
73428;SDS011;61643;49.564;17.412;2023-04-06T07:06:00;7.97;;;4.72;;
73428;SDS011;61643;49.564;17.412;2023-04-06T07:08:26;9.15;;;4.85;;
73428;SDS011;61643;49.564;17.412;2023-04-06T07:10:52;8.15;;;5.00;;
73428;SDS011;61643;49.564;17.412;2023-04-06T07:13:19;11.18;;;4.93;;
73428;SDS011;61643;49.564;17.412;2023-04-06T07:15:49;7.95;;;5.03;;
73428;SDS011;61643;49.564;17.412;2023-04-06T07:18:16;7.93;;;4.88;;
73428;SDS011;61643;49.564;17.412;2023-04-06T07:20:42;7.55;;;4.88;;
73428;SDS011;61643;49.564;17.412;2023-04-06T07:23:08;7.72;;;4.80;;
73428;SDS011;61643;49.564;17.412;2023-04-06T07:25:34;9.50;;;4.80;;
73428;SDS011;61643;49.564;17.412;2023-04-06T07:28:01;9.10;;;4.88;;
73428;SDS011;61643;49.564;17.412;2023-04-06T07:30:28;8.25;;;5.20;;
73428;SDS011;61643;49.564;17.412;2023-04-06T07:32:54;11.57;;;5.32;;
73428;SDS011;61643;49.564;17.412;2023-04-06T07:35:24;13.05;;;5.13;;
73428;SDS011;61643;49.564;17.412;2023-04-06T07:37:52;8.88;;;4.97;;
73428;SDS011;61643;49.564;17.412;2023-04-06T07:40:18;8.27;;;5.05;;
73428;SDS011;61643;49.564;17.412;2023-04-06T07:42:45;8.68;;;5.05;;
73428;SDS011;61643;49.564;17.412;2023-04-06T07:45:11;8.43;;;5.00;;
73428;SDS011;61643;49.564;17.412;2023-04-06T07:47:37;8.48;;;4.50;;
73428;SDS011;61643;49.564;17.412;2023-04-06T07:50:03;7.45;;;4.55;;
73428;SDS011;61643;49.564;17.412;2023-04-06T07:52:30;8.18;;;4.72;;
73428;SDS011;61643;49.564;17.412;2023-04-06T07:55:00;8.82;;;4.88;;
73428;SDS011;61643;49.564;17.412;2023-04-06T07:57:26;7.00;;;3.67;;
73428;SDS011;61643;49.564;17.412;2023-04-06T07:59:52;6.95;;;4.38;;
73428;SDS011;61643;49.564;17.412;2023-04-06T08:02:18;7.35;;;3.67;;
73428;SDS011;61643;49.564;17.412;2023-04-06T08:04:44;7.25;;;4.35;;
73428;SDS011;61643;49.564;17.412;2023-04-06T08:07:10;6.88;;;4.40;;
73428;SDS011;61643;49.564;17.412;2023-04-06T08:09:36;5.32;;;2.88;;
73428;SDS011;61643;49.564;17.412;2023-04-06T08:12:03;8.70;;;4.07;;
73428;SDS011;61643;49.564;17.412;2023-04-06T08:14:29;8.93;;;5.05;;
73428;SDS011;61643;49.564;17.412;2023-04-06T08:16:55;9.20;;;5.15;;
73428;SDS011;61643;49.564;17.412;2023-04-06T08:19:21;8.18;;;4.22;;
73428;SDS011;61643;49.564;17.412;2023-04-06T08:21:47;6.07;;;4.50;;
73428;SDS011;61643;49.564;17.412;2023-04-06T08:24:13;8.70;;;4.50;;
73428;SDS011;61643;49.564;17.412;2023-04-06T08:26:40;7.80;;;4.57;;
73428;SDS011;61643;49.564;17.412;2023-04-06T08:29:06;11.15;;;5.22;;
73428;SDS011;61643;49.564;17.412;2023-04-06T08:31:35;9.75;;;4.32;;
73428;SDS011;61643;49.564;17.412;2023-04-06T08:34:02;9.35;;;4.60;;
73428;SDS011;61643;49.564;17.412;2023-04-06T08:38:56;8.35;;;3.85;;
73428;SDS011;61643;49.564;17.412;2023-04-06T08:41:22;7.78;;;3.85;;
73428;SDS011;61643;49.564;17.412;2023-04-06T08:43:49;7.00;;;3.97;;
73428;SDS011;61643;49.564;17.412;2023-04-06T08:46:21;9.23;;;3.95;;
73428;SDS011;61643;49.564;17.412;2023-04-06T08:48:54;9.30;;;4.43;;
73428;SDS011;61643;49.564;17.412;2023-04-06T08:51:22;7.25;;;4.50;;
73428;SDS011;61643;49.564;17.412;2023-04-06T08:53:50;7.38;;;3.88;;
73428;SDS011;61643;49.564;17.412;2023-04-06T08:56:16;7.82;;;4.45;;
73428;SDS011;61643;49.564;17.412;2023-04-06T08:58:43;9.57;;;4.68;;
73428;SDS011;61643;49.564;17.412;2023-04-06T09:01:11;7.68;;;4.22;;
73428;SDS011;61643;49.564;17.412;2023-04-06T09:03:39;7.50;;;3.78;;
73428;SDS011;61643;49.564;17.412;2023-04-06T09:06:06;9.82;;;5.20;;
73428;SDS011;61643;49.564;17.412;2023-04-06T09:08:33;9.88;;;4.65;;
73428;SDS011;61643;49.564;17.412;2023-04-06T09:11:03;8.93;;;4.68;;
73428;SDS011;61643;49.564;17.412;2023-04-06T09:13:30;7.50;;;4.82;;
73428;SDS011;61643;49.564;17.412;2023-04-06T09:16:00;8.82;;;4.50;;
73428;SDS011;61643;49.564;17.412;2023-04-06T09:18:32;12.10;;;5.50;;
73428;SDS011;61643;49.564;17.412;2023-04-06T09:21:00;10.68;;;5.40;;
73428;SDS011;61643;49.564;17.412;2023-04-06T09:23:28;7.53;;;4.55;;
73428;SDS011;61643;49.564;17.412;2023-04-06T09:26:10;9.52;;;5.60;;
73428;SDS011;61643;49.564;17.412;2023-04-06T09:28:42;8.35;;;5.03;;
73428;SDS011;61643;49.564;17.412;2023-04-06T09:31:22;8.73;;;3.97;;
73428;SDS011;61643;49.564;17.412;2023-04-06T09:33:49;11.30;;;5.45;;
73428;SDS011;61643;49.564;17.412;2023-04-06T09:36:16;12.02;;;5.70;;
73428;SDS011;61643;49.564;17.412;2023-04-06T09:41:28;8.43;;;5.43;;
73428;SDS011;61643;49.564;17.412;2023-04-06T09:44:04;7.70;;;4.85;;
73428;SDS011;61643;49.564;17.412;2023-04-06T09:46:41;11.30;;;6.07;;
73428;SDS011;61643;49.564;17.412;2023-04-06T09:49:08;10.88;;;6.35;;
73428;SDS011;61643;49.564;17.412;2023-04-06T09:54:15;10.70;;;5.78;;
73428;SDS011;61643;49.564;17.412;2023-04-06T09:59:20;9.82;;;5.30;;
73428;SDS011;61643;49.564;17.412;2023-04-06T10:02:04;8.77;;;5.03;;
73428;SDS011;61643;49.564;17.412;2023-04-06T10:04:36;11.98;;;5.90;;
73428;SDS011;61643;49.564;17.412;2023-04-06T10:07:02;10.30;;;5.90;;
73428;SDS011;61643;49.564;17.412;2023-04-06T10:09:32;10.73;;;6.18;;
73428;SDS011;61643;49.564;17.412;2023-04-06T10:12:04;10.95;;;6.00;;
73428;SDS011;61643;49.564;17.412;2023-04-06T10:14:34;12.38;;;6.43;;
73428;SDS011;61643;49.564;17.412;2023-04-06T10:17:03;11.93;;;6.32;;
73428;SDS011;61643;49.564;17.412;2023-04-06T10:19:43;10.95;;;6.18;;
73428;SDS011;61643;49.564;17.412;2023-04-06T10:22:22;13.15;;;5.93;;
73428;SDS011;61643;49.564;17.412;2023-04-06T10:24:54;11.85;;;6.07;;
73428;SDS011;61643;49.564;17.412;2023-04-06T10:27:29;10.25;;;6.40;;
73428;SDS011;61643;49.564;17.412;2023-04-06T10:30:03;11.50;;;6.20;;
73428;SDS011;61643;49.564;17.412;2023-04-06T10:32:32;9.88;;;5.82;;
73428;SDS011;61643;49.564;17.412;2023-04-06T10:35:05;13.35;;;5.95;;
73428;SDS011;61643;49.564;17.412;2023-04-06T10:37:49;9.75;;;6.18;;
73428;SDS011;61643;49.564;17.412;2023-04-06T10:40:26;7.20;;;4.50;;
73428;SDS011;61643;49.564;17.412;2023-04-06T10:42:53;10.55;;;6.40;;
73428;SDS011;61643;49.564;17.412;2023-04-06T10:45:24;11.35;;;5.50;;
73428;SDS011;61643;49.564;17.412;2023-04-06T10:47:54;13.02;;;6.78;;
73428;SDS011;61643;49.564;17.412;2023-04-06T10:50:21;10.85;;;6.13;;
73428;SDS011;61643;49.564;17.412;2023-04-06T10:53:00;17.75;;;7.00;;
73428;SDS011;61643;49.564;17.412;2023-04-06T10:55:30;11.27;;;5.70;;
73428;SDS011;61643;49.564;17.412;2023-04-06T10:57:57;11.40;;;6.13;;
73428;SDS011;61643;49.564;17.412;2023-04-06T11:00:23;10.10;;;6.63;;
73428;SDS011;61643;49.564;17.412;2023-04-06T11:02:49;10.73;;;5.90;;
73428;SDS011;61643;49.564;17.412;2023-04-06T11:05:15;11.23;;;5.80;;
73428;SDS011;61643;49.564;17.412;2023-04-06T11:07:41;10.68;;;6.95;;
73428;SDS011;61643;49.564;17.412;2023-04-06T11:10:07;11.57;;;6.22;;
73428;SDS011;61643;49.564;17.412;2023-04-06T11:12:34;9.18;;;5.80;;
73428;SDS011;61643;49.564;17.412;2023-04-06T11:15:02;10.85;;;6.40;;
73428;SDS011;61643;49.564;17.412;2023-04-06T11:17:32;9.38;;;5.93;;
73428;SDS011;61643;49.564;17.412;2023-04-06T11:20:05;11.63;;;6.20;;
73428;SDS011;61643;49.564;17.412;2023-04-06T11:22:36;7.65;;;5.18;;
73428;SDS011;61643;49.564;17.412;2023-04-06T11:25:05;10.57;;;6.70;;
73428;SDS011;61643;49.564;17.412;2023-04-06T11:27:33;13.10;;;5.47;;
73428;SDS011;61643;49.564;17.412;2023-04-06T11:29:59;11.02;;;5.53;;
73428;SDS011;61643;49.564;17.412;2023-04-06T11:32:26;11.68;;;7.00;;
73428;SDS011;61643;49.564;17.412;2023-04-06T11:34:53;12.27;;;6.95;;
73428;SDS011;61643;49.564;17.412;2023-04-06T11:37:19;14.27;;;7.25;;
73428;SDS011;61643;49.564;17.412;2023-04-06T11:39:48;13.07;;;6.78;;
73428;SDS011;61643;49.564;17.412;2023-04-06T11:42:23;8.02;;;5.68;;
73428;SDS011;61643;49.564;17.412;2023-04-06T11:44:54;11.23;;;6.80;;
73428;SDS011;61643;49.564;17.412;2023-04-06T11:47:27;9.70;;;6.35;;
73428;SDS011;61643;49.564;17.412;2023-04-06T11:49:54;9.15;;;5.47;;
73428;SDS011;61643;49.564;17.412;2023-04-06T11:52:22;10.95;;;5.65;;
73428;SDS011;61643;49.564;17.412;2023-04-06T11:54:50;8.88;;;5.50;;
73428;SDS011;61643;49.564;17.412;2023-04-06T11:57:17;9.80;;;6.00;;
73428;SDS011;61643;49.564;17.412;2023-04-06T11:59:45;11.23;;;6.43;;
73428;SDS011;61643;49.564;17.412;2023-04-06T12:02:11;8.20;;;5.22;;
73428;SDS011;61643;49.564;17.412;2023-04-06T12:04:37;7.38;;;5.43;;
73428;SDS011;61643;49.564;17.412;2023-04-06T12:07:04;10.18;;;5.97;;
73428;SDS011;61643;49.564;17.412;2023-04-06T12:09:30;8.55;;;5.15;;
73428;SDS011;61643;49.564;17.412;2023-04-06T12:11:56;9.55;;;5.68;;
73428;SDS011;61643;49.564;17.412;2023-04-06T12:14:22;9.15;;;5.43;;
73428;SDS011;61643;49.564;17.412;2023-04-06T12:16:49;9.85;;;5.90;;
73428;SDS011;61643;49.564;17.412;2023-04-06T12:19:15;11.35;;;5.70;;
73428;SDS011;61643;49.564;17.412;2023-04-06T12:21:41;8.82;;;5.43;;
73428;SDS011;61643;49.564;17.412;2023-04-06T12:24:08;9.05;;;5.90;;
73428;SDS011;61643;49.564;17.412;2023-04-06T12:26:34;10.55;;;5.80;;
73428;SDS011;61643;49.564;17.412;2023-04-06T12:29:02;10.75;;;6.57;;
73428;SDS011;61643;49.564;17.412;2023-04-06T12:31:38;10.35;;;6.30;;
73428;SDS011;61643;49.564;17.412;2023-04-06T12:34:06;9.88;;;6.22;;
73428;SDS011;61643;49.564;17.412;2023-04-06T12:36:33;14.75;;;7.07;;
73428;SDS011;61643;49.564;17.412;2023-04-06T12:38:59;9.98;;;5.93;;
73428;SDS011;61643;49.564;17.412;2023-04-06T12:41:28;9.85;;;5.82;;
73428;SDS011;61643;49.564;17.412;2023-04-06T12:43:55;11.07;;;6.70;;
73428;SDS011;61643;49.564;17.412;2023-04-06T12:46:21;10.95;;;6.28;;
73428;SDS011;61643;49.564;17.412;2023-04-06T12:48:48;9.68;;;6.47;;
73428;SDS011;61643;49.564;17.412;2023-04-06T12:51:14;13.70;;;7.05;;
73428;SDS011;61643;49.564;17.412;2023-04-06T12:53:40;7.70;;;5.35;;
73428;SDS011;61643;49.564;17.412;2023-04-06T12:56:13;11.60;;;6.40;;
73428;SDS011;61643;49.564;17.412;2023-04-06T12:58:41;11.38;;;6.47;;
73428;SDS011;61643;49.564;17.412;2023-04-06T13:01:07;9.73;;;5.85;;
73428;SDS011;61643;49.564;17.412;2023-04-06T13:03:33;12.60;;;7.03;;
73428;SDS011;61643;49.564;17.412;2023-04-06T13:06:00;12.55;;;7.13;;
73428;SDS011;61643;49.564;17.412;2023-04-06T13:08:27;13.20;;;7.40;;
73428;SDS011;61643;49.564;17.412;2023-04-06T13:10:53;12.45;;;7.18;;
73428;SDS011;61643;49.564;17.412;2023-04-06T13:13:22;14.02;;;7.03;;
73428;SDS011;61643;49.564;17.412;2023-04-06T13:15:52;11.52;;;6.07;;
73428;SDS011;61643;49.564;17.412;2023-04-06T13:18:21;10.45;;;6.25;;
73428;SDS011;61643;49.564;17.412;2023-04-06T13:20:48;12.07;;;6.85;;
73428;SDS011;61643;49.564;17.412;2023-04-06T13:23:14;9.95;;;6.28;;
73428;SDS011;61643;49.564;17.412;2023-04-06T13:25:42;11.23;;;6.40;;
73428;SDS011;61643;49.564;17.412;2023-04-06T13:28:13;11.40;;;6.93;;
73428;SDS011;61643;49.564;17.412;2023-04-06T13:30:39;11.68;;;6.68;;
73428;SDS011;61643;49.564;17.412;2023-04-06T13:33:05;12.63;;;6.53;;
73428;SDS011;61643;49.564;17.412;2023-04-06T13:35:32;11.90;;;7.28;;
73428;SDS011;61643;49.564;17.412;2023-04-06T13:37:58;13.77;;;6.38;;
73428;SDS011;61643;49.564;17.412;2023-04-06T13:40:24;12.02;;;6.45;;
73428;SDS011;61643;49.564;17.412;2023-04-06T13:42:50;11.13;;;6.75;;
73428;SDS011;61643;49.564;17.412;2023-04-06T13:45:16;10.10;;;6.35;;
73428;SDS011;61643;49.564;17.412;2023-04-06T13:47:42;11.38;;;6.80;;
73428;SDS011;61643;49.564;17.412;2023-04-06T13:50:08;12.70;;;6.97;;
73428;SDS011;61643;49.564;17.412;2023-04-06T13:52:34;10.25;;;5.85;;
73428;SDS011;61643;49.564;17.412;2023-04-06T13:55:01;11.77;;;6.60;;
73428;SDS011;61643;49.564;17.412;2023-04-06T13:57:28;12.95;;;7.03;;
73428;SDS011;61643;49.564;17.412;2023-04-06T13:59:55;13.48;;;7.53;;
73428;SDS011;61643;49.564;17.412;2023-04-06T14:02:21;14.27;;;8.00;;
73428;SDS011;61643;49.564;17.412;2023-04-06T14:04:52;12.02;;;6.97;;
73428;SDS011;61643;49.564;17.412;2023-04-06T14:07:20;13.68;;;6.38;;
73428;SDS011;61643;49.564;17.412;2023-04-06T14:09:46;9.57;;;6.47;;
73428;SDS011;61643;49.564;17.412;2023-04-06T14:12:12;12.35;;;7.38;;
73428;SDS011;61643;49.564;17.412;2023-04-06T14:14:38;11.68;;;5.82;;
73428;SDS011;61643;49.564;17.412;2023-04-06T14:17:04;12.02;;;6.93;;
73428;SDS011;61643;49.564;17.412;2023-04-06T14:19:30;16.30;;;9.95;;
73428;SDS011;61643;49.564;17.412;2023-04-06T14:21:56;13.98;;;8.45;;
73428;SDS011;61643;49.564;17.412;2023-04-06T14:24:23;13.52;;;7.68;;
73428;SDS011;61643;49.564;17.412;2023-04-06T14:26:50;13.73;;;7.65;;
73428;SDS011;61643;49.564;17.412;2023-04-06T14:29:16;11.52;;;6.93;;
73428;SDS011;61643;49.564;17.412;2023-04-06T14:31:44;11.30;;;7.07;;
73428;SDS011;61643;49.564;17.412;2023-04-06T14:34:11;12.13;;;6.82;;
73428;SDS011;61643;49.564;17.412;2023-04-06T14:36:37;12.75;;;7.80;;
73428;SDS011;61643;49.564;17.412;2023-04-06T14:39:04;15.32;;;8.38;;